createdAt,value
2023-03-11T00:00:38.479Z,86.60
2023-03-11T00:03:07.410Z,86.60
2023-03-11T00:05:37.887Z,86.70
2023-03-11T00:08:06.576Z,86.60
2023-03-11T00:10:37.141Z,86.00
2023-03-11T00:13:05.573Z,86.50
2023-03-11T00:15:33.842Z,86.80
2023-03-11T00:18:01.402Z,87.80
2023-03-11T00:20:34.613Z,87.00
2023-03-11T00:23:02.757Z,87.30
2023-03-11T00:25:35.359Z,87.60
2023-03-11T00:28:03.019Z,87.70
2023-03-11T00:30:30.533Z,88.00
2023-03-11T00:32:59.448Z,87.90
2023-03-11T00:35:29.677Z,88.10
2023-03-11T00:38:00.006Z,88.30
2023-03-11T00:40:29.967Z,88.50
2023-03-11T00:42:57.958Z,88.30
2023-03-11T00:45:25.983Z,88.00
2023-03-11T00:47:53.772Z,88.10
2023-03-11T00:50:26.055Z,88.20
2023-03-11T00:52:54.601Z,88.60
2023-03-11T00:55:24.710Z,88.70
2023-03-11T00:57:57.684Z,88.90
2023-03-11T01:00:29.584Z,88.90
2023-03-11T01:02:58.721Z,88.80
2023-03-11T01:05:29.684Z,88.40
2023-03-11T01:07:56.933Z,88.10
2023-03-11T01:10:24.846Z,88.20
2023-03-11T01:12:52.061Z,88.30
2023-03-11T01:15:23.013Z,88.00
2023-03-11T01:17:50.234Z,88.00
2023-03-11T01:20:17.730Z,88.10
2023-03-11T01:22:45.644Z,88.10
2023-03-11T01:25:17.148Z,88.30
2023-03-11T01:27:44.705Z,88.50
2023-03-11T01:30:16.795Z,88.60
2023-03-11T01:32:44.988Z,89.00
2023-03-11T01:35:15.859Z,88.80
2023-03-11T01:37:43.769Z,88.70
2023-03-11T01:40:17.753Z,88.80
2023-03-11T01:42:44.997Z,88.80
2023-03-11T01:45:31.124Z,88.70
2023-03-11T01:47:58.416Z,88.70
2023-03-11T01:50:28.351Z,88.50
2023-03-11T01:52:56.083Z,88.50
2023-03-11T01:55:23.475Z,88.50
2023-03-11T01:57:52.449Z,88.50
2023-03-11T02:00:20.074Z,88.70
2023-03-11T02:02:55.606Z,88.60
2023-03-11T02:05:24.616Z,88.80
2023-03-11T02:07:54.899Z,88.80
2023-03-11T02:10:25.491Z,88.80
2023-03-11T02:12:54.558Z,88.90
2023-03-11T02:15:28.485Z,88.90
2023-03-11T02:17:58.709Z,88.80
2023-03-11T02:21:13.620Z,88.70
2023-03-11T02:24:04.676Z,88.80
2023-03-11T02:26:53.373Z,88.80
2023-03-11T02:29:22.886Z,89.00
2023-03-11T02:31:50.785Z,88.70
2023-03-11T02:34:25.164Z,88.80
2023-03-11T02:36:52.763Z,89.00
2023-03-11T02:39:32.316Z,89.00
2023-03-11T02:42:02.291Z,88.80
2023-03-11T02:44:29.584Z,88.70
2023-03-11T02:46:57.054Z,88.80
2023-03-11T02:49:25.083Z,88.80
2023-03-11T02:51:52.389Z,88.90
2023-03-11T02:54:19.607Z,88.90
2023-03-11T02:56:46.866Z,89.00
2023-03-11T02:59:14.041Z,89.00
2023-03-11T03:01:41.550Z,88.80
2023-03-11T03:04:08.900Z,89.00
2023-03-11T03:06:36.200Z,89.10
2023-03-11T03:09:04.148Z,89.10
2023-03-11T03:11:31.382Z,89.10
2023-03-11T03:13:59.002Z,89.00
2023-03-11T03:16:26.421Z,89.10
2023-03-11T03:18:54.529Z,89.10
2023-03-11T03:21:21.733Z,89.10
2023-03-11T03:23:49.227Z,89.10
2023-03-11T03:26:16.646Z,88.40
2023-03-11T03:28:47.676Z,89.10
2023-03-11T03:31:15.111Z,89.00
2023-03-11T03:33:43.663Z,89.00
2023-03-11T03:36:13.763Z,88.90
2023-03-11T03:38:44.125Z,88.90
2023-03-11T03:41:15.616Z,88.90
2023-03-11T03:43:43.039Z,88.90
2023-03-11T03:46:10.634Z,88.20
2023-03-11T03:48:42.626Z,89.00
2023-03-11T03:51:13.574Z,88.90
2023-03-11T03:53:56.432Z,88.90
2023-03-11T03:56:25.126Z,88.80
2023-03-11T03:58:53.717Z,88.80
2023-03-11T04:01:22.242Z,89.00
2023-03-11T04:03:49.573Z,89.00
2023-03-11T04:06:20.840Z,88.20
2023-03-11T04:08:53.962Z,89.00
2023-03-11T04:11:24.388Z,89.00
2023-03-11T04:13:51.847Z,88.90
2023-03-11T04:16:22.087Z,88.00
2023-03-11T04:18:50.766Z,88.80
2023-03-11T04:21:18.747Z,89.00
2023-03-11T04:23:47.233Z,89.00
2023-03-11T04:26:16.715Z,88.90
2023-03-11T04:28:43.916Z,89.00
2023-03-11T04:31:12.445Z,88.80
2023-03-11T04:33:39.988Z,88.80
2023-03-11T04:36:10.002Z,88.90
2023-03-11T04:38:38.652Z,88.90
2023-03-11T04:41:08.246Z,89.10
2023-03-11T04:43:38.772Z,89.10
2023-03-11T04:46:06.043Z,88.20
2023-03-11T04:48:33.510Z,89.00
2023-03-11T04:51:00.769Z,88.90
2023-03-11T04:53:30.334Z,88.90
2023-03-11T04:55:57.978Z,88.90
2023-03-11T04:58:25.356Z,88.80
2023-03-11T05:00:53.494Z,88.90
2023-03-11T05:03:21.674Z,88.80
2023-03-11T05:05:49.087Z,88.60
2023-03-11T05:08:18.943Z,88.60
2023-03-11T05:10:46.309Z,88.50
2023-03-11T05:13:13.489Z,88.50
2023-03-11T05:15:42.541Z,88.50
2023-03-11T05:18:09.742Z,88.70
2023-03-11T05:20:38.828Z,88.80
2023-03-11T05:23:06.569Z,88.80
2023-03-11T05:25:36.127Z,88.70
2023-03-11T05:28:04.587Z,88.60
2023-03-11T05:30:34.006Z,88.50
2023-03-11T05:33:01.272Z,88.50
2023-03-11T05:35:28.842Z,88.50
2023-03-11T05:37:56.350Z,88.60
2023-03-11T05:40:27.231Z,88.60
2023-03-11T05:42:54.391Z,88.60
2023-03-11T05:45:22.129Z,88.60
2023-03-11T05:47:52.504Z,88.80
2023-03-11T05:50:20.724Z,88.80
2023-03-11T05:52:49.681Z,88.70
2023-03-11T05:55:17.574Z,88.80
2023-03-11T05:57:46.262Z,89.00
2023-03-11T06:00:14.325Z,89.10
2023-03-11T06:02:43.014Z,89.10
2023-03-11T06:05:14.098Z,89.30
2023-03-11T06:07:43.145Z,89.40
2023-03-11T06:10:11.276Z,89.40
2023-03-11T06:12:39.269Z,89.60
2023-03-11T06:15:26.700Z,90.30
2023-03-11T06:17:54.530Z,90.00
2023-03-11T06:20:22.291Z,89.70
2023-03-11T06:22:49.967Z,89.70
2023-03-11T06:25:17.688Z,89.70
2023-03-11T06:27:51.361Z,89.90
2023-03-11T06:30:19.900Z,90.00
2023-03-11T06:32:58.331Z,90.10
2023-03-11T06:35:25.627Z,90.60
2023-03-11T06:37:52.826Z,90.30
2023-03-11T06:40:20.216Z,90.50
2023-03-11T06:42:47.752Z,90.60
2023-03-11T06:45:15.176Z,90.60
2023-03-11T06:47:43.683Z,90.60
2023-03-11T06:50:11.582Z,90.70
2023-03-11T06:52:38.849Z,90.60
2023-03-11T06:55:08.707Z,90.50
2023-03-11T06:57:36.895Z,90.50
2023-03-11T07:00:10.824Z,90.50
2023-03-11T07:02:38.162Z,90.60
2023-03-11T07:05:05.939Z,90.60
2023-03-11T07:07:33.502Z,90.70
2023-03-11T07:10:01.343Z,90.70
2023-03-11T07:12:28.586Z,90.60
2023-03-11T07:14:59.587Z,90.50
2023-03-11T07:17:28.195Z,90.50
2023-03-11T07:19:55.642Z,90.50
2023-03-11T07:22:22.818Z,90.50
2023-03-11T07:24:50.173Z,90.40
2023-03-11T07:27:17.742Z,90.30
2023-03-11T07:29:45.014Z,90.20
2023-03-11T07:32:12.201Z,90.20
2023-03-11T07:34:39.423Z,90.20
2023-03-11T07:37:06.714Z,90.30
2023-03-11T07:39:33.919Z,90.30
2023-03-11T07:42:01.094Z,90.10
2023-03-11T07:44:35.380Z,90.10
2023-03-11T07:47:04.110Z,90.00
2023-03-11T07:49:31.611Z,89.60
2023-03-11T07:51:58.781Z,89.20
2023-03-11T07:54:25.975Z,89.30
2023-03-11T07:56:53.203Z,89.30
2023-03-11T07:59:20.476Z,89.00
2023-03-11T08:01:47.738Z,89.00
2023-03-11T08:04:17.044Z,89.10
2023-03-11T08:06:47.004Z,89.20
2023-03-11T08:09:14.468Z,89.40
2023-03-11T08:11:41.863Z,89.10
2023-03-11T08:14:09.588Z,89.00
2023-03-11T08:16:36.792Z,89.20
2023-03-11T08:19:03.965Z,89.20
2023-03-11T08:21:32.176Z,89.30
2023-03-11T08:24:02.378Z,89.30
2023-03-11T08:26:30.483Z,89.30
2023-03-11T08:28:58.819Z,89.90
2023-03-11T08:31:29.436Z,89.50
2023-03-11T08:34:02.037Z,88.90
2023-03-11T08:36:29.915Z,89.50
2023-03-11T08:38:59.864Z,88.80
2023-03-11T08:41:27.974Z,88.60
2023-03-11T08:43:55.384Z,83.80
2023-03-11T08:46:28.279Z,74.90
2023-03-11T08:48:58.077Z,66.00
2023-03-11T08:51:27.036Z,56.40
2023-03-11T08:53:54.726Z,51.40
2023-03-11T08:56:22.124Z,48.30
2023-03-11T08:58:50.735Z,46.80
2023-03-11T09:01:18.135Z,46.30
2023-03-11T09:03:45.741Z,46.50
2023-03-11T09:06:15.644Z,49.00
2023-03-11T09:08:44.551Z,49.80
2023-03-11T09:11:13.520Z,53.10
2023-03-11T09:13:41.936Z,54.10
2023-03-11T09:16:17.566Z,58.00
2023-03-11T09:18:45.355Z,60.10
2023-03-11T09:21:13.237Z,61.20
2023-03-11T09:23:43.632Z,60.30
2023-03-11T09:26:11.852Z,56.80
2023-03-11T09:28:39.415Z,51.60
2023-03-11T09:31:06.720Z,51.60
2023-03-11T09:33:42.050Z,51.60
2023-03-11T09:36:13.808Z,46.30
2023-03-11T09:38:41.872Z,40.80
2023-03-11T09:41:18.350Z,38.80
2023-03-11T09:44:17.491Z,39.20
2023-03-11T09:47:06.800Z,37.00
2023-03-11T09:49:39.637Z,34.10
2023-03-11T09:52:15.773Z,35.60
2023-03-11T09:54:47.788Z,35.60
2023-03-11T09:57:24.117Z,40.10
2023-03-11T09:59:51.677Z,42.80
2023-03-11T10:02:22.292Z,43.70
2023-03-11T10:05:06.630Z,45.20
2023-03-11T10:07:39.409Z,49.50
2023-03-11T10:10:10.964Z,52.50
2023-03-11T10:13:33.540Z,56.40
2023-03-11T10:16:23.771Z,52.70
2023-03-11T10:19:21.320Z,61.30
2023-03-11T10:22:11.370Z,56.60
2023-03-11T10:25:09.838Z,55.50
2023-03-11T10:27:48.199Z,59.90
2023-03-11T10:30:34.232Z,56.80
2023-03-11T10:33:06.645Z,56.00
2023-03-11T10:35:40.449Z,54.90
2023-03-11T10:38:47.061Z,51.90
2023-03-11T10:41:20.903Z,53.90
2023-03-11T10:44:09.467Z,54.20
2023-03-11T10:46:36.614Z,51.50
2023-03-11T10:49:05.567Z,48.80
2023-03-11T10:51:35.589Z,44.30
2023-03-11T10:54:04.078Z,44.20
2023-03-11T10:56:37.018Z,44.20
2023-03-11T10:59:25.761Z,43.10
2023-03-11T11:02:01.792Z,39.00
2023-03-11T11:04:37.180Z,36.80
2023-03-11T11:07:29.263Z,35.10
2023-03-11T11:10:11.716Z,35.30
2023-03-11T11:13:00.820Z,34.50
2023-03-11T11:15:32.441Z,33.20
2023-03-11T11:18:03.053Z,34.30
2023-03-11T11:20:32.154Z,35.50
2023-03-11T11:23:02.174Z,33.30
2023-03-11T11:25:36.586Z,33.90
2023-03-11T11:28:17.412Z,31.70
2023-03-11T11:30:59.720Z,30.60
2023-03-11T11:33:29.217Z,34.00
2023-03-11T11:36:05.534Z,31.20
2023-03-11T11:38:33.165Z,29.70
2023-03-11T11:41:04.750Z,29.20
2023-03-11T11:43:59.084Z,29.60
2023-03-11T11:46:43.197Z,26.40
2023-03-11T11:49:20.779Z,29.00
2023-03-11T11:51:50.846Z,27.80
2023-03-11T11:54:30.051Z,29.00
2023-03-11T11:56:58.328Z,26.20
2023-03-11T11:59:26.947Z,27.30
2023-03-11T12:02:37.840Z,28.30
2023-03-11T12:05:20.325Z,28.40
2023-03-11T12:07:53.419Z,28.50
2023-03-11T12:10:27.010Z,32.00
2023-03-11T12:13:31.977Z,32.50
2023-03-11T12:16:11.161Z,29.90
2023-03-11T12:19:11.926Z,28.30
2023-03-11T12:21:57.152Z,27.80
2023-03-11T12:24:45.589Z,27.60
2023-03-11T12:27:40.759Z,23.50
2023-03-11T12:30:21.795Z,25.20
2023-03-11T12:33:06.403Z,27.20
2023-03-11T12:35:35.773Z,24.80
2023-03-11T12:38:03.221Z,25.10
2023-03-11T12:40:42.781Z,28.90
2023-03-11T12:43:48.207Z,28.00
2023-03-11T12:46:17.990Z,29.20
2023-03-11T12:48:50.835Z,29.80
2023-03-11T12:51:26.896Z,28.50
2023-03-11T12:53:55.539Z,29.50
2023-03-11T12:56:44.053Z,29.10
2023-03-11T12:59:48.542Z,29.70
2023-03-11T13:02:53.439Z,26.40
2023-03-11T13:05:48.082Z,27.20
2023-03-11T13:08:28.175Z,23.30
2023-03-11T13:10:56.535Z,28.50
2023-03-11T13:13:30.153Z,32.70
2023-03-11T13:15:58.829Z,26.70
2023-03-11T13:18:32.714Z,22.40
2023-03-11T13:21:04.618Z,24.20
2023-03-11T13:23:40.597Z,25.60
2023-03-11T13:26:10.675Z,22.70
2023-03-11T13:29:13.855Z,25.60
2023-03-11T13:31:59.847Z,26.30
2023-03-11T13:35:01.381Z,31.20
2023-03-11T13:37:50.980Z,31.90
2023-03-11T13:40:38.677Z,32.70
2023-03-11T13:43:17.019Z,29.80
2023-03-11T13:46:01.439Z,29.80
2023-03-11T13:48:32.843Z,33.80
2023-03-11T13:51:20.134Z,35.20
2023-03-11T13:54:02.041Z,38.00
2023-03-11T13:56:32.562Z,37.50
2023-03-11T13:59:22.281Z,40.80
2023-03-11T14:01:53.566Z,39.20
2023-03-11T14:04:26.776Z,39.80
2023-03-11T14:06:54.095Z,44.80
2023-03-11T14:09:27.201Z,47.00
2023-03-11T14:12:03.413Z,47.20
2023-03-11T14:14:48.955Z,42.60
2023-03-11T14:17:18.639Z,42.90
2023-03-11T14:20:15.114Z,41.10
2023-03-11T14:22:47.539Z,44.00
2023-03-11T14:25:19.488Z,42.20
2023-03-11T14:28:07.631Z,42.60
2023-03-11T14:30:34.989Z,45.40
2023-03-11T14:33:04.828Z,44.90
2023-03-11T14:35:33.774Z,44.20
2023-03-11T14:38:01.054Z,45.80
2023-03-11T14:40:29.884Z,44.80
2023-03-11T14:43:01.544Z,40.90
2023-03-11T14:45:40.439Z,40.50
2023-03-11T14:48:08.465Z,41.60
2023-03-11T14:50:36.126Z,43.30
2023-03-11T14:53:19.348Z,43.90
2023-03-11T14:56:08.350Z,41.40
2023-03-11T14:58:40.285Z,43.00
2023-03-11T15:01:17.172Z,40.60
2023-03-11T15:03:58.873Z,42.40
2023-03-11T15:06:29.373Z,44.30
2023-03-11T15:08:58.345Z,44.40
2023-03-11T15:11:28.341Z,43.10
2023-03-11T15:14:16.874Z,43.50
2023-03-11T15:16:44.081Z,44.20
2023-03-11T15:19:29.472Z,44.50
2023-03-11T15:22:21.306Z,46.40
2023-03-11T15:24:57.617Z,49.30
2023-03-11T15:27:36.678Z,50.10
2023-03-11T15:30:18.318Z,48.00
2023-03-11T15:32:45.926Z,45.90
2023-03-11T15:35:18.817Z,45.30
2023-03-11T15:37:47.603Z,46.10
2023-03-11T15:40:43.872Z,46.70
2023-03-11T15:43:14.648Z,46.70
2023-03-11T15:45:45.566Z,48.00
2023-03-11T15:48:13.926Z,47.70
2023-03-11T15:50:56.413Z,47.60
2023-03-11T15:53:25.717Z,45.10
2023-03-11T15:56:03.588Z,45.50
2023-03-11T15:58:33.743Z,45.30
2023-03-11T16:01:01.068Z,45.20
2023-03-11T16:03:30.242Z,43.20
2023-03-11T16:05:58.644Z,43.20
2023-03-11T16:08:25.849Z,44.80
2023-03-11T16:10:53.006Z,46.30
2023-03-11T16:13:20.135Z,46.50
2023-03-11T16:15:47.409Z,43.60
2023-03-11T16:18:14.675Z,44.20
2023-03-11T16:20:53.894Z,47.50
2023-03-11T16:23:44.847Z,47.50
2023-03-11T16:26:17.860Z,47.30
2023-03-11T16:28:45.074Z,45.00
2023-03-11T16:31:12.260Z,45.20
2023-03-11T16:33:39.408Z,46.00
2023-03-11T16:36:06.841Z,48.40
2023-03-11T16:38:48.985Z,47.80
2023-03-11T16:41:17.102Z,46.20
2023-03-11T16:43:44.419Z,47.00
2023-03-11T16:46:11.726Z,46.80
2023-03-11T16:48:39.036Z,44.90
2023-03-11T16:51:06.772Z,43.80
2023-03-11T16:53:33.974Z,41.90
2023-03-11T16:56:01.195Z,43.70
2023-03-11T16:58:28.324Z,46.00
2023-03-11T17:00:55.520Z,45.90
2023-03-11T17:03:22.749Z,46.90
2023-03-11T17:05:50.237Z,48.60
2023-03-11T17:08:18.350Z,50.70
2023-03-11T17:10:46.468Z,51.70
2023-03-11T17:13:16.464Z,51.70
2023-03-11T17:15:45.677Z,52.40
2023-03-11T17:18:13.651Z,53.90
2023-03-11T17:20:43.444Z,55.80
2023-03-11T17:23:10.772Z,57.70
2023-03-11T17:25:41.272Z,58.70
2023-03-11T17:28:09.051Z,59.60
2023-03-11T17:30:37.691Z,61.30
2023-03-11T17:33:05.140Z,62.30
2023-03-11T17:35:32.447Z,63.00
2023-03-11T17:37:59.695Z,63.50
2023-03-11T17:40:29.140Z,63.10
2023-03-11T17:42:59.805Z,63.40
2023-03-11T17:45:27.062Z,63.80
2023-03-11T17:47:54.306Z,64.60
2023-03-11T17:50:21.744Z,65.40
2023-03-11T17:52:48.968Z,65.90
2023-03-11T17:55:16.221Z,66.50
2023-03-11T17:57:45.778Z,67.00
2023-03-11T18:00:14.730Z,67.20
2023-03-11T18:02:42.390Z,67.50
2023-03-11T18:05:09.738Z,67.80
2023-03-11T18:07:40.865Z,68.20
2023-03-11T18:10:09.046Z,68.70
2023-03-11T18:12:36.420Z,69.00
2023-03-11T18:15:06.168Z,69.40
2023-03-11T18:17:35.036Z,69.90
2023-03-11T18:20:02.595Z,70.30
2023-03-11T18:22:29.736Z,70.80
2023-03-11T18:24:57.730Z,71.20
2023-03-11T18:27:24.961Z,71.50
2023-03-11T18:29:52.187Z,71.70
2023-03-11T18:32:20.718Z,71.90
2023-03-11T18:34:51.275Z,72.10
2023-03-11T18:37:18.680Z,72.40
2023-03-11T18:39:45.861Z,72.50
2023-03-11T18:42:14.043Z,72.70
2023-03-11T18:44:42.067Z,74.00
2023-03-11T18:47:09.418Z,73.30
2023-03-11T18:49:36.627Z,73.50
2023-03-11T18:52:03.942Z,73.60
2023-03-11T18:54:31.176Z,73.60
2023-03-11T18:56:58.359Z,73.60
2023-03-11T18:59:27.441Z,73.80
2023-03-11T19:01:54.798Z,74.10
2023-03-11T19:04:22.368Z,74.40
2023-03-11T19:06:50.179Z,74.50
2023-03-11T19:09:18.387Z,74.60
2023-03-11T19:11:45.888Z,74.70
2023-03-11T19:14:13.211Z,74.80
2023-03-11T19:16:40.513Z,74.80
2023-03-11T19:19:08.718Z,75.00
2023-03-11T19:21:36.877Z,75.10
2023-03-11T19:24:04.198Z,75.40
2023-03-11T19:26:44.404Z,76.50
2023-03-11T19:29:14.103Z,75.80
2023-03-11T19:31:43.394Z,76.10
2023-03-11T19:34:10.697Z,76.30
2023-03-11T19:36:38.995Z,76.50
2023-03-11T19:39:06.492Z,76.60
2023-03-11T19:41:33.773Z,76.80
2023-03-11T19:44:01.354Z,77.00
2023-03-11T19:46:29.630Z,77.10
2023-03-11T19:48:56.944Z,77.20
2023-03-11T19:51:25.420Z,77.30
2023-03-11T19:53:55.607Z,77.40
2023-03-11T19:56:25.721Z,77.40
2023-03-11T19:58:53.200Z,77.50
2023-03-11T20:01:21.045Z,77.70
2023-03-11T20:03:48.253Z,77.80
2023-03-11T20:06:18.499Z,78.00
2023-03-11T20:08:45.787Z,78.00
2023-03-11T20:11:13.292Z,78.20
2023-03-11T20:13:43.650Z,78.30
2023-03-11T20:16:13.857Z,77.90
2023-03-11T20:18:41.451Z,78.60
2023-03-11T20:21:11.710Z,78.60
2023-03-11T20:23:40.018Z,78.60
2023-03-11T20:26:12.545Z,78.20
2023-03-11T20:28:39.927Z,79.00
2023-03-11T20:31:27.779Z,79.00
2023-03-11T20:33:55.535Z,79.00
2023-03-11T20:36:27.102Z,78.50
2023-03-11T20:38:55.349Z,79.30
2023-03-11T20:41:23.968Z,79.30
2023-03-11T20:43:56.769Z,79.40
2023-03-11T20:46:24.416Z,79.60
2023-03-11T20:48:51.711Z,79.90
2023-03-11T20:51:20.458Z,80.10
2023-03-11T20:53:48.089Z,80.20
2023-03-11T20:56:18.544Z,80.10
2023-03-11T20:58:48.510Z,80.10
2023-03-11T21:01:22.233Z,80.10
2023-03-11T21:03:52.281Z,80.10
2023-03-11T21:06:25.773Z,80.10
2023-03-11T21:08:55.074Z,80.00
2023-03-11T21:11:24.045Z,80.10
2023-03-11T21:13:51.800Z,80.10
2023-03-11T21:16:19.107Z,79.40
2023-03-11T21:18:49.189Z,80.10
2023-03-11T21:21:17.459Z,80.00
2023-03-11T21:23:45.799Z,80.10
2023-03-11T21:26:15.408Z,80.20
2023-03-11T21:28:46.357Z,80.20
2023-03-11T21:31:19.890Z,80.30
2023-03-11T21:33:48.350Z,80.40
2023-03-11T21:36:16.498Z,79.80
2023-03-11T21:38:43.984Z,80.50
2023-03-11T21:41:15.979Z,80.70
2023-03-11T21:43:43.645Z,80.70
2023-03-11T21:46:13.726Z,80.80
2023-03-11T21:48:41.608Z,80.70
2023-03-11T21:51:08.826Z,80.60
2023-03-11T21:53:36.499Z,80.70
2023-03-11T21:56:04.443Z,80.80
2023-03-11T21:58:32.999Z,81.00
2023-03-11T22:01:00.538Z,81.00
2023-03-11T22:03:28.500Z,81.10
2023-03-11T22:05:59.986Z,81.00
2023-03-11T22:08:27.808Z,82.00
2023-03-11T22:10:55.666Z,81.00
2023-03-11T22:13:24.013Z,81.00
2023-03-11T22:15:51.662Z,81.00
2023-03-11T22:18:19.279Z,81.00
2023-03-11T22:20:46.492Z,81.10
2023-03-11T22:23:13.627Z,81.10
2023-03-11T22:25:40.798Z,81.10
2023-03-11T22:28:12.071Z,81.10
2023-03-11T22:30:39.310Z,81.20
2023-03-11T22:33:07.046Z,81.10
2023-03-11T22:35:34.583Z,81.00
2023-03-11T22:38:02.131Z,81.00
2023-03-11T22:40:29.341Z,80.80
2023-03-11T22:42:56.668Z,80.80
2023-03-11T22:45:23.885Z,80.90
2023-03-11T22:47:53.061Z,81.00
2023-03-11T22:50:20.993Z,81.00
2023-03-11T22:52:48.255Z,81.00
2023-03-11T22:55:15.582Z,81.10
2023-03-11T22:57:42.734Z,81.10
2023-03-11T23:00:17.478Z,81.00
2023-03-11T23:02:46.077Z,80.90
2023-03-11T23:05:14.920Z,80.90
2023-03-11T23:07:42.334Z,80.90
2023-03-11T23:10:12.209Z,80.90
2023-03-11T23:12:40.204Z,80.90
2023-03-11T23:15:11.479Z,80.80
2023-03-11T23:17:39.151Z,80.60
2023-03-11T23:20:09.866Z,80.60
2023-03-11T23:22:38.739Z,80.50
2023-03-11T23:25:10.322Z,80.40
2023-03-11T23:27:37.487Z,80.30
2023-03-11T23:30:05.676Z,80.10
2023-03-11T23:32:32.999Z,80.00
2023-03-11T23:35:00.207Z,79.70
2023-03-11T23:37:27.417Z,79.80
2023-03-11T23:39:54.589Z,80.00
2023-03-11T23:42:25.953Z,80.00
2023-03-11T23:44:54.068Z,79.80
2023-03-11T23:47:21.285Z,79.50
2023-03-11T23:49:48.528Z,79.60
2023-03-11T23:52:15.927Z,79.70
2023-03-11T23:54:43.165Z,79.30
2023-03-11T23:57:10.373Z,79.20
2023-03-11T23:59:37.585Z,79.20
